Time;durP1;ratioP1;P1;durP2;ratioP2;P2;SDS_P1;SDS_P2;PMS_P1;PMS_P2;Temp;Humidity;BMP_temperature;BMP_pressure;BME280_temperature;BME280_humidity;BME280_pressure;Samples;Min_cycle;Max_cycle;Signal;HPM_P1;HPM_P2
2022/09/27 00:00:33;;;;;;;;;;;;;;;16.32;52.63;93882.50;5037495;28;20060;-69
2022/09/27 00:02:58;;;;;;;;;;;;;;;16.27;53.06;93879.38;5066422;28;20029;-69
2022/09/27 00:05:24;;;;;;;;;;;;;;;16.29;53.25;93866.38;5052860;28;20036;-69
2022/09/27 00:07:49;;;;;;;;;;;;;;;16.32;53.47;93868.31;5052572;28;20016;-69
2022/09/27 00:10:15;;;;;;;;;;;;;;;16.34;53.63;93864.13;5052475;28;20021;-69
2022/09/27 00:12:40;;;;;;;;;;;;;;;16.36;53.45;93858.38;5052427;28;20032;-69
2022/09/27 00:15:06;;;;;;;;;;;;;;;16.33;53.91;93861.84;5038684;28;20017;-69
2022/09/27 00:17:31;;;;;;;;;;;;;;;16.24;54.23;93850.63;5052655;28;20055;-68
2022/09/27 00:19:59;;;;;;;;;;;;;;;16.15;54.39;93855.53;5042758;28;20481;-69
2022/09/27 00:22:25;;;;;;;;;;;;;;;16.09;54.94;93855.88;5052319;28;20013;-68
2022/09/27 00:24:50;;;;;;;;;;;;;;;16.00;55.46;93862.66;5039643;28;20063;-69
2022/09/27 00:27:16;;;;;;;;;;;;;;;15.91;56.26;93862.19;5033356;28;20037;-68
2022/09/27 00:29:41;;;;;;;;;;;;;;;15.89;56.69;93865.25;5033200;28;20028;-69
2022/09/27 00:32:07;;;;;;;;;;;;;;;15.92;56.85;93864.53;5036456;28;20474;-69
2022/09/27 00:34:32;;;;;;;;;;;;;;;15.92;57.23;93850.31;5042536;28;20393;-68
2022/09/27 00:36:57;;;;;;;;;;;;;;;15.88;57.27;93853.00;5053033;28;20420;-69
2022/09/27 00:39:22;;;;;;;;;;;;;;;15.85;57.57;93857.16;5043632;28;20057;-69
2022/09/27 00:41:48;;;;;;;;;;;;;;;15.86;58.14;93856.00;5050002;28;20104;-69
2022/09/27 00:44:25;;;;;;;;;;;;;;;15.88;58.33;93855.66;5051558;28;20017;-68
2022/09/27 00:46:58;;;;;;;;;;;;;;;15.88;58.39;93847.63;5046680;28;20112;-68
2022/09/27 00:49:26;;;;;;;;;;;;;;;15.86;58.10;93845.28;5048979;28;20013;-69
2022/09/27 00:51:58;;;;;;;;;;;;;;;15.84;58.29;93839.53;5052737;28;20556;-68
2022/09/27 00:54:26;;;;;;;;;;;;;;;15.82;58.28;93835.69;5050342;28;20436;-69
2022/09/27 00:56:52;;;;;;;;;;;;;;;15.74;58.91;93831.38;5045153;28;20505;-68
2022/09/27 00:59:32;;;;;;;;;;;;;;;15.72;58.48;93841.72;5044955;28;20010;-68
2022/09/27 01:01:58;;;;;;;;;;;;;;;15.74;58.39;93840.19;5046905;28;20251;-69
2022/09/27 01:04:25;;;;;;;;;;;;;;;15.76;58.31;93837.16;5040745;28;20045;-68
2022/09/27 01:06:51;;;;;;;;;;;;;;;15.77;58.58;93831.44;5037928;28;20006;-69
2022/09/27 01:09:16;;;;;;;;;;;;;;;15.82;58.46;93833.78;5051103;28;20020;-68
2022/09/27 01:11:48;;;;;;;;;;;;;;;15.84;58.44;93822.69;5051369;28;20088;-69
2022/09/27 01:14:27;;;;;;;;;;;;;;;15.62;58.69;93829.72;5050850;28;20017;-69
2022/09/27 01:17:02;;;;;;;;;;;;;;;15.75;58.49;93825.66;5041742;28;20554;-68
2022/09/27 01:19:27;;;;;;;;;;;;;;;15.74;58.82;93820.66;5031803;28;20010;-69
2022/09/27 01:22:04;;;;;;;;;;;;;;;15.68;58.88;93814.88;5032594;28;20017;-69
2022/09/27 01:24:36;;;;;;;;;;;;;;;15.69;59.34;93818.31;5050379;28;20014;-69
2022/09/27 01:27:20;;;;;;;;;;;;;;;15.68;59.15;93814.09;5050250;28;20399;-68
2022/09/27 01:30:04;;;;;;;;;;;;;;;15.68;59.11;93809.50;5049524;28;20014;-69
2022/09/27 01:32:44;;;;;;;;;;;;;;;15.68;59.06;93806.81;5047386;28;20014;-68
2022/09/27 01:35:16;;;;;;;;;;;;;;;15.67;59.24;93802.63;5037930;28;20418;-68
2022/09/27 01:37:53;;;;;;;;;;;;;;;15.69;58.92;93804.91;5044637;28;20112;-69
2022/09/27 01:40:37;;;;;;;;;;;;;;;15.67;59.16;93797.25;5050715;28;20456;-68
2022/09/27 01:43:02;;;;;;;;;;;;;;;15.75;58.78;93801.53;5051680;28;20017;-68
2022/09/27 01:45:30;;;;;;;;;;;;;;;15.81;58.94;93804.63;5043906;28;20240;-69
2022/09/27 01:47:57;;;;;;;;;;;;;;;15.88;58.71;93807.41;5035838;28;20059;-69
2022/09/27 01:50:30;;;;;;;;;;;;;;;15.94;58.74;93803.25;5044084;28;20014;-69
2022/09/27 01:53:02;;;;;;;;;;;;;;;15.97;58.79;93801.72;5049822;28;20083;-68
2022/09/27 01:55:30;;;;;;;;;;;;;;;15.88;58.94;93798.59;5050989;28;20399;-68
2022/09/27 01:57:58;;;;;;;;;;;;;;;15.86;59.16;93796.25;5046017;28;20071;-68
2022/09/27 02:00:23;;;;;;;;;;;;;;;15.76;59.49;93791.56;5045340;28;20017;-69
2022/09/27 02:02:56;;;;;;;;;;;;;;;15.72;59.21;93793.47;5042943;28;20714;-68
2022/09/27 02:05:25;;;;;;;;;;;;;;;15.70;59.38;93782.31;5044355;28;20017;-68
2022/09/27 02:08:03;;;;;;;;;;;;;;;15.73;59.44;93782.38;5051447;28;20055;-68
2022/09/27 02:10:32;;;;;;;;;;;;;;;15.80;59.31;93784.34;5050152;28;20017;-69
2022/09/27 02:13:12;;;;;;;;;;;;;;;15.81;59.22;93783.97;5048893;28;20053;-69
2022/09/27 02:15:58;;;;;;;;;;;;;;;15.85;59.18;93784.00;5046643;28;20010;-68
2022/09/27 02:18:28;;;;;;;;;;;;;;;15.89;59.10;93784.03;5047520;28;20057;-68
2022/09/27 02:20:55;;;;;;;;;;;;;;;15.91;58.67;93787.09;5047845;28;20045;-69
2022/09/27 02:23:20;;;;;;;;;;;;;;;15.92;59.25;93784.06;5047889;28;20068;-69
2022/09/27 02:25:50;;;;;;;;;;;;;;;15.90;59.26;93782.91;5043329;28;20018;-69
2022/09/27 02:28:27;;;;;;;;;;;;;;;15.90;59.02;93775.63;5048029;28;20009;-68
2022/09/27 02:30:53;;;;;;;;;;;;;;;15.86;59.13;93778.25;5034799;28;20020;-68
2022/09/27 02:33:21;;;;;;;;;;;;;;;15.81;59.38;93785.88;5049909;28;20009;-68
2022/09/27 02:35:47;;;;;;;;;;;;;;;15.77;59.97;93774.38;5049124;28;20071;-68
2022/09/27 02:38:12;;;;;;;;;;;;;;;15.76;59.74;93759.41;5048489;28;20006;-69
2022/09/27 02:40:42;;;;;;;;;;;;;;;15.73;59.75;93758.25;5050396;28;20421;-69
2022/09/27 02:43:08;;;;;;;;;;;;;;;15.70;59.92;93769.69;5049115;28;20025;-69
2022/09/27 02:45:44;;;;;;;;;;;;;;;15.72;60.22;93767.44;5045530;28;20478;-68
2022/09/27 02:48:25;;;;;;;;;;;;;;;15.73;60.43;93763.59;5062719;28;20033;-69
2022/09/27 02:51:05;;;;;;;;;;;;;;;15.71;60.11;93749.00;5049473;28;20006;-68
2022/09/27 02:53:33;;;;;;;;;;;;;;;15.62;59.94;93749.31;5048726;28;20020;-69
2022/09/27 02:56:18;;;;;;;;;;;;;;;15.66;60.26;93754.72;5037573;28;20028;-69
2022/09/27 02:58:52;;;;;;;;;;;;;;;15.61;60.36;93737.06;5029696;28;20020;-68
2022/09/27 03:01:23;;;;;;;;;;;;;;;15.58;60.58;93735.88;5037308;28;20009;-68
2022/09/27 03:03:54;;;;;;;;;;;;;;;15.63;60.73;93724.06;5043835;28;20444;-68
2022/09/27 03:06:22;;;;;;;;;;;;;;;15.66;60.64;93725.22;5030123;28;20021;-68
2022/09/27 03:08:47;;;;;;;;;;;;;;;15.68;60.91;93737.13;5034411;28;20009;-69
2022/09/27 03:11:13;;;;;;;;;;;;;;;15.67;60.84;93734.84;5049179;28;20010;-69
2022/09/27 03:13:38;;;;;;;;;;;;;;;15.67;60.68;93732.91;5044874;28;20476;-69
2022/09/27 03:16:04;;;;;;;;;;;;;;;15.69;60.76;93727.19;5029452;28;20462;-69
2022/09/27 03:18:30;;;;;;;;;;;;;;;15.75;60.66;93725.69;5046992;28;20017;-68
2022/09/27 03:20:55;;;;;;;;;;;;;;;15.75;60.47;93725.69;5048831;28;20016;-69
2022/09/27 03:23:20;;;;;;;;;;;;;;;15.73;60.48;93717.25;5049110;28;20461;-68
2022/09/27 03:25:46;;;;;;;;;;;;;;;15.73;60.65;93722.63;5048418;28;20013;-69
2022/09/27 03:28:11;;;;;;;;;;;;;;;15.74;60.25;93713.44;5047887;28;20012;-68
2022/09/27 03:30:36;;;;;;;;;;;;;;;15.77;60.26;93716.16;5043356;28;20634;-69
2022/09/27 03:33:02;;;;;;;;;;;;;;;15.81;60.28;93716.94;5045492;22;20026;-68
2022/09/27 03:35:27;;;;;;;;;;;;;;;15.84;60.36;93710.06;5018120;28;20038;-68
2022/09/27 03:37:52;;;;;;;;;;;;;;;15.79;60.20;93715.78;5029850;28;20006;-68
2022/09/27 03:40:18;;;;;;;;;;;;;;;15.75;60.26;93705.00;5028230;28;20020;-68
2022/09/27 03:42:43;;;;;;;;;;;;;;;15.76;60.51;93706.56;5027323;28;20014;-64
2022/09/27 03:45:08;;;;;;;;;;;;;;;15.80;60.56;93706.59;5011516;28;20017;-70
2022/09/27 03:47:33;;;;;;;;;;;;;;;15.78;60.41;93700.84;5028380;28;20552;-67
2022/09/27 03:49:59;;;;;;;;;;;;;;;15.75;60.13;93699.66;5010585;28;20014;-67
2022/09/27 03:52:24;;;;;;;;;;;;;;;15.74;60.16;93694.66;5029703;28;20006;-68
2022/09/27 03:54:50;;;;;;;;;;;;;;;15.68;60.21;93690.81;5029135;28;20014;-69
2022/09/27 03:57:15;;;;;;;;;;;;;;;15.65;60.23;93696.88;5028189;28;20045;-67
2022/09/27 03:59:40;;;;;;;;;;;;;;;15.62;60.03;93698.38;5029270;28;20064;-67
2022/09/27 04:02:05;;;;;;;;;;;;;;;15.64;60.17;93698.81;5027715;28;20018;-67
2022/09/27 04:04:31;;;;;;;;;;;;;;;15.63;60.45;93699.16;5007987;28;20409;-66
2022/09/27 04:06:58;;;;;;;;;;;;;;;15.67;60.30;93697.31;5028848;28;20481;-67
2022/09/27 04:09:23;;;;;;;;;;;;;;;15.67;60.17;93700.00;5028348;28;20101;-66
2022/09/27 04:11:48;;;;;;;;;;;;;;;15.66;60.26;93693.84;5029611;28;20106;-69
2022/09/27 04:14:13;;;;;;;;;;;;;;;15.62;60.47;93681.53;5028910;28;20528;-66
2022/09/27 04:16:39;;;;;;;;;;;;;;;15.66;60.28;93690.38;5026884;28;20018;-66
2022/09/27 04:19:04;;;;;;;;;;;;;;;15.41;59.62;93690.16;5010402;28;20010;-66
2022/09/27 04:21:30;;;;;;;;;;;;;;;15.54;59.70;93691.41;5028713;28;20014;-66
2022/09/27 04:23:55;;;;;;;;;;;;;;;15.20;60.34;93682.69;5028705;28;20014;-66
2022/09/27 04:26:21;;;;;;;;;;;;;;;15.28;59.87;93693.09;5028686;28;20041;-66
2022/09/27 04:28:46;;;;;;;;;;;;;;;14.78;61.53;93681.09;5028250;28;20063;-66
2022/09/27 04:31:11;;;;;;;;;;;;;;;15.06;60.80;93686.78;5028499;28;20112;-66
2022/09/27 04:33:37;;;;;;;;;;;;;;;14.15;63.00;93695.97;5016805;28;20100;-67
2022/09/27 04:38:46;;;;;;;;;;;;;;;14.49;62.68;93688.81;5028714;28;20021;-66
2022/09/27 04:41:13;;;;;;;;;;;;;;;14.67;62.26;93702.38;5010801;28;20041;-66
2022/09/27 04:43:38;;;;;;;;;;;;;;;14.69;62.30;93696.66;5014456;28;20018;-66
2022/09/27 04:46:03;;;;;;;;;;;;;;;14.71;61.81;93700.53;5014100;28;20055;-66
2022/09/27 04:48:29;;;;;;;;;;;;;;;14.73;62.35;93702.84;5030826;28;20020;-67
2022/09/27 04:50:55;;;;;;;;;;;;;;;14.80;62.21;93687.63;5031421;28;20021;-66
2022/09/27 04:53:20;;;;;;;;;;;;;;;14.85;62.16;93701.84;5029705;28;20101;-69
2022/09/27 04:55:46;;;;;;;;;;;;;;;14.93;62.76;93714.91;5031877;28;20423;-69
2022/09/27 04:58:11;;;;;;;;;;;;;;;15.02;62.66;93709.28;5043224;28;20018;-68
2022/09/27 05:00:36;;;;;;;;;;;;;;;15.25;62.42;93704.56;5031555;28;20540;-68
2022/09/27 05:03:01;;;;;;;;;;;;;;;15.29;61.47;93709.94;5013809;28;20486;-68
2022/09/27 05:05:27;;;;;;;;;;;;;;;15.50;61.43;93712.81;5015010;28;20009;-69
2022/09/27 05:07:52;;;;;;;;;;;;;;;15.67;60.34;93716.06;5032450;28;20005;-69
2022/09/27 05:10:17;;;;;;;;;;;;;;;15.34;59.53;93715.72;5032179;28;20029;-65
2022/09/27 05:12:42;;;;;;;;;;;;;;;15.58;59.15;93719.03;5014120;28;20014;-64
2022/09/27 05:15:08;;;;;;;;;;;;;;;15.11;60.25;93731.19;5036544;28;20013;-66
2022/09/27 05:17:34;;;;;;;;;;;;;;;15.16;59.99;93722.84;5028132;28;20068;-65
2022/09/27 05:19:59;;;;;;;;;;;;;;;15.16;59.73;93732.78;5032374;28;20014;-64
2022/09/27 05:22:24;;;;;;;;;;;;;;;14.89;61.15;93738.19;5031800;28;20014;-66
2022/09/27 05:24:49;;;;;;;;;;;;;;;14.34;62.10;93737.88;5014996;28;20767;-67
2022/09/27 05:27:19;;;;;;;;;;;;;;;13.83;62.66;93735.59;5032472;28;20434;-68
2022/09/27 05:29:44;;;;;;;;;;;;;;;13.64;64.59;93736.44;5014889;28;20064;-67
2022/09/27 05:32:10;;;;;;;;;;;;;;;14.14;62.57;93747.13;5033713;28;20092;-68
2022/09/27 05:34:35;;;;;;;;;;;;;;;14.01;63.05;93743.88;5031624;28;20013;-67
2022/09/27 05:37:00;;;;;;;;;;;;;;;13.32;64.34;93743.91;5014646;28;20022;-66
2022/09/27 05:39:25;;;;;;;;;;;;;;;12.93;65.04;93743.91;5014018;28;20021;-67
2022/09/27 05:41:53;;;;;;;;;;;;;;;13.68;63.69;93742.63;5014060;28;20025;-66
2022/09/27 05:44:18;;;;;;;;;;;;;;;13.03;65.02;93750.59;5031664;28;20010;-66
2022/09/27 05:46:45;;;;;;;;;;;;;;;12.89;65.48;93769.75;5016989;28;20014;-66
2022/09/27 05:49:10;;;;;;;;;;;;;;;13.25;64.07;93765.88;5027708;28;20036;-65
2022/09/27 05:51:35;;;;;;;;;;;;;;;13.09;64.59;93757.19;5045991;28;20116;-66
2022/09/27 05:54:00;;;;;;;;;;;;;;;12.49;66.53;93759.44;5013280;28;20020;-66
2022/09/27 05:56:26;;;;;;;;;;;;;;;12.93;65.52;93765.25;5030270;28;20409;-65
2022/09/27 05:58:51;;;;;;;;;;;;;;;11.90;69.51;93758.50;5030966;28;20101;-66
2022/09/27 06:01:17;;;;;;;;;;;;;;;11.56;70.01;93769.81;5029505;28;20014;-66
2022/09/27 06:03:42;;;;;;;;;;;;;;;11.97;69.01;93779.19;5011551;28;20021;-66
2022/09/27 06:06:09;;;;;;;;;;;;;;;11.93;69.54;93775.69;5020490;28;20060;-66
2022/09/27 06:08:35;;;;;;;;;;;;;;;11.63;70.75;93778.00;5012060;28;20018;-66
2022/09/27 06:11:03;;;;;;;;;;;;;;;12.25;67.91;93778.31;5028172;28;20694;-66
2022/09/27 06:13:28;;;;;;;;;;;;;;;11.77;69.88;93782.88;5030880;28;20020;-66
2022/09/27 06:15:54;;;;;;;;;;;;;;;11.78;69.17;93779.88;5010521;28;20013;-68
2022/09/27 06:18:19;;;;;;;;;;;;;;;11.22;71.24;93789.88;5023514;28;20101;-66
2022/09/27 06:20:45;;;;;;;;;;;;;;;11.54;70.86;93790.69;5029957;28;20076;-66
2022/09/27 06:23:10;;;;;;;;;;;;;;;11.91;69.84;93804.56;5029723;28;20159;-66
2022/09/27 06:25:36;;;;;;;;;;;;;;;11.66;70.69;93798.59;5023178;28;20493;-67
2022/09/27 06:28:02;;;;;;;;;;;;;;;11.56;70.58;93807.09;5029559;28;20017;-67
2022/09/27 06:30:27;;;;;;;;;;;;;;;11.99;68.11;93808.19;5010802;28;20018;-67
2022/09/27 06:32:56;;;;;;;;;;;;;;;11.66;69.67;93806.59;5027270;28;20359;-68
2022/09/27 06:35:23;;;;;;;;;;;;;;;11.39;70.49;93808.97;5029471;28;20430;-68
2022/09/27 06:37:49;;;;;;;;;;;;;;;11.13;71.15;93812.06;5030347;28;20017;-68
2022/09/27 06:40:14;;;;;;;;;;;;;;;11.49;69.63;93814.91;5030407;28;20006;-68
2022/09/27 06:42:39;;;;;;;;;;;;;;;11.55;69.08;93818.88;5011906;28;20398;-68
2022/09/27 06:45:05;;;;;;;;;;;;;;;11.69;67.84;93819.22;5029924;28;20378;-68
2022/09/27 06:47:34;;;;;;;;;;;;;;;12.26;66.87;93833.94;5030545;28;20002;-69
2022/09/27 06:50:02;;;;;;;;;;;;;;;11.83;67.76;93838.28;5008087;28;20011;-68
2022/09/27 06:52:27;;;;;;;;;;;;;;;11.50;69.25;93827.88;4993003;28;20537;-69
2022/09/27 06:54:52;;;;;;;;;;;;;;;12.38;67.02;93828.50;5010575;28;20070;-68
2022/09/27 07:00:22;;;;;;;;;;;;;;;12.61;65.62;93838.53;5010751;28;20053;-69
2022/09/27 07:02:47;;;;;;;;;;;;;;;12.59;65.29;93848.78;5030287;28;20264;-68
2022/09/27 07:05:12;;;;;;;;;;;;;;;12.86;63.63;93853.19;5023701;28;20014;-69
2022/09/27 07:07:38;;;;;;;;;;;;;;;13.10;63.31;93856.72;5009387;28;20355;-68
2022/09/27 07:10:04;;;;;;;;;;;;;;;13.48;61.14;93859.44;5009763;28;20014;-69
2022/09/27 07:12:29;;;;;;;;;;;;;;;13.26;61.64;93854.81;5011264;28;20015;-68
2022/09/27 07:14:54;;;;;;;;;;;;;;;13.19;61.57;93855.38;5010471;28;20013;-69
2022/09/27 07:17:19;;;;;;;;;;;;;;;12.95;61.49;93861.00;5010265;28;20010;-68
2022/09/27 07:19:44;;;;;;;;;;;;;;;13.76;60.01;93851.16;5020084;28;20010;-69
2022/09/27 07:22:10;;;;;;;;;;;;;;;14.57;57.98;93850.97;5029379;28;20049;-68
2022/09/27 07:24:35;;;;;;;;;;;;;;;13.20;60.82;93859.59;5029763;28;20049;-68
2022/09/27 07:27:00;;;;;;;;;;;;;;;14.13;59.27;93856.00;5030056;28;20116;-68
2022/09/27 07:29:25;;;;;;;;;;;;;;;15.32;56.31;93843.94;5028937;28;20089;-69
2022/09/27 07:31:51;;;;;;;;;;;;;;;14.71;58.11;93846.97;5028675;28;20109;-70
2022/09/27 07:34:17;;;;;;;;;;;;;;;13.98;60.21;93846.97;5011371;28;20474;-68
2022/09/27 07:36:43;;;;;;;;;;;;;;;14.51;58.03;93848.97;5012130;28;20016;-69
2022/09/27 07:39:08;;;;;;;;;;;;;;;13.31;61.43;93856.41;5011367;28;20014;-69
2022/09/27 07:41:33;;;;;;;;;;;;;;;14.54;59.25;93862.41;5030331;28;20373;-69
2022/09/27 07:43:59;;;;;;;;;;;;;;;14.45;58.02;93859.19;5030267;28;20018;-69
2022/09/27 07:46:24;;;;;;;;;;;;;;;13.00;61.97;93861.50;5029843;28;20052;-69
2022/09/27 07:48:51;;;;;;;;;;;;;;;13.41;60.38;93861.97;5027031;28;20025;-68
2022/09/27 07:51:16;;;;;;;;;;;;;;;12.79;62.66;93868.28;5030030;28;20010;-68
2022/09/27 07:53:41;;;;;;;;;;;;;;;13.19;61.59;93857.28;5012263;28;20182;-69
2022/09/27 07:56:07;;;;;;;;;;;;;;;12.71;60.01;93872.69;5029896;28;20006;-68
2022/09/27 07:58:32;;;;;;;;;;;;;;;13.20;60.12;93869.50;5028379;28;20115;-68
2022/09/27 08:00:57;;;;;;;;;;;;;;;12.89;59.90;93870.41;5009805;28;20037;-68
2022/09/27 08:03:23;;;;;;;;;;;;;;;13.51;58.17;93877.44;5029522;28;20119;-69
2022/09/27 08:05:48;;;;;;;;;;;;;;;13.12;58.86;93883.84;5027605;28;20017;-68
2022/09/27 08:08:14;;;;;;;;;;;;;;;12.35;62.23;93895.09;5011574;28;20533;-68
2022/09/27 08:10:43;;;;;;;;;;;;;;;10.75;72.29;93939.41;5010915;28;20021;-68
2022/09/27 08:13:08;;;;;;;;;;;;;;;10.33;72.40;93935.09;5029704;28;20378;-67
2022/09/27 08:15:37;;;;;;;;;;;;;;;9.81;74.29;93950.78;5029391;28;20006;-68
2022/09/27 08:18:03;;;;;;;;;;;;;;;9.62;74.82;93948.63;5032892;28;20059;-68
2022/09/27 08:20:28;;;;;;;;;;;;;;;9.74;76.88;93961.97;5031394;28;20116;-67
2022/09/27 08:22:54;;;;;;;;;;;;;;;9.60;76.16;93962.22;5014917;28;20530;-68
2022/09/27 08:25:21;;;;;;;;;;;;;;;9.74;76.47;93954.00;5033302;28;20006;-66
2022/09/27 08:27:54;;;;;;;;;;;;;;;9.84;76.17;93960.78;5015254;28;20014;-67
2022/09/27 08:30:19;;;;;;;;;;;;;;;10.39;75.43;93959.59;5032102;28;20009;-67
2022/09/27 08:32:44;;;;;;;;;;;;;;;10.10;75.79;93971.13;5032773;28;20493;-67
2022/09/27 08:35:10;;;;;;;;;;;;;;;9.82;76.14;93968.28;5031826;28;20019;-68
2022/09/27 08:37:36;;;;;;;;;;;;;;;9.70;77.22;93968.25;5014990;28;20394;-67
2022/09/27 08:40:02;;;;;;;;;;;;;;;10.28;76.53;93959.22;5010202;28;20011;-67
2022/09/27 08:42:48;;;;;;;;;;;;;;;10.84;73.71;93959.47;4995285;28;20018;-68
2022/09/27 08:45:37;;;;;;;;;;;;;;;10.69;75.68;93968.13;5013189;28;20463;-68
2022/09/27 08:48:03;;;;;;;;;;;;;;;11.53;71.44;93967.56;5013326;28;20076;-67
2022/09/27 08:50:34;;;;;;;;;;;;;;;11.24;74.35;93961.41;5022454;28;20021;-68
2022/09/27 08:53:16;;;;;;;;;;;;;;;11.65;72.24;93954.19;5015237;28;20010;-67
2022/09/27 08:55:43;;;;;;;;;;;;;;;11.41;74.36;93949.72;5026710;28;20016;-67
2022/09/27 08:58:32;;;;;;;;;;;;;;;11.44;71.40;93957.81;5010670;28;20155;-67
2022/09/27 09:01:12;;;;;;;;;;;;;;;11.50;71.93;93962.91;5028892;28;20018;-68
2022/09/27 09:03:39;;;;;;;;;;;;;;;11.01;69.54;93968.34;5013497;28;20488;-68
2022/09/27 09:06:05;;;;;;;;;;;;;;;11.26;70.61;93971.72;5026590;28;20014;-68
2022/09/27 09:08:30;;;;;;;;;;;;;;;11.99;71.39;93962.75;5031929;28;20038;-68
2022/09/27 09:14:01;;;;;;;;;;;;;;;12.53;68.69;93964.84;5032127;28;20124;-68
2022/09/27 09:16:32;;;;;;;;;;;;;;;11.85;69.34;93963.13;5031601;28;20014;-67
2022/09/27 09:19:22;;;;;;;;;;;;;;;10.94;72.01;93967.00;5013224;28;20013;-67
2022/09/27 09:21:47;;;;;;;;;;;;;;;11.56;69.65;93967.66;5012999;28;20414;-67
2022/09/27 09:24:27;;;;;;;;;;;;;;;11.00;71.93;93969.44;5013666;28;20083;-68
2022/09/27 09:26:52;;;;;;;;;;;;;;;11.93;68.81;93957.66;5031748;28;20010;-67
2022/09/27 09:29:18;;;;;;;;;;;;;;;12.19;69.12;93964.41;5012426;28;20017;-68
2022/09/27 09:31:52;;;;;;;;;;;;;;;12.15;68.66;93961.66;5032063;28;20028;-67
2022/09/27 09:34:28;;;;;;;;;;;;;;;13.01;64.85;93966.38;5030382;28;20018;-68
2022/09/27 09:37:08;;;;;;;;;;;;;;;13.25;62.81;93968.06;5031944;28;20009;-68
2022/09/27 09:39:44;;;;;;;;;;;;;;;11.90;66.04;93971.66;5013362;28;20052;-68
2022/09/27 09:42:09;;;;;;;;;;;;;;;12.49;66.50;93967.47;5031679;28;20009;-68
2022/09/27 09:44:43;;;;;;;;;;;;;;;12.73;65.12;93977.16;5014223;28;20348;-68
2022/09/27 09:47:17;;;;;;;;;;;;;;;11.33;65.47;93980.72;5030163;28;20020;-68
2022/09/27 09:49:45;;;;;;;;;;;;;;;11.32;67.19;93987.16;5029175;28;20032;-68
2022/09/27 09:52:12;;;;;;;;;;;;;;;12.02;65.51;93986.03;5023175;28;20010;-68
2022/09/27 09:54:50;;;;;;;;;;;;;;;11.90;66.20;93979.66;5011496;28;20010;-68
2022/09/27 09:57:19;;;;;;;;;;;;;;;12.27;65.34;93987.47;5011805;28;20069;-68
2022/09/27 09:59:47;;;;;;;;;;;;;;;12.87;64.10;93979.41;5011176;28;20014;-69
2022/09/27 10:02:31;;;;;;;;;;;;;;;13.11;63.34;93987.22;5011943;28;20042;-68
2022/09/27 10:04:56;;;;;;;;;;;;;;;13.93;60.94;93991.63;5016241;28;20020;-68
2022/09/27 10:07:22;;;;;;;;;;;;;;;13.67;60.11;93989.56;5031264;28;20003;-68
2022/09/27 10:09:49;;;;;;;;;;;;;;;13.33;60.79;94006.41;5030875;28;20006;-68
2022/09/27 10:12:14;;;;;;;;;;;;;;;13.61;61.55;94001.66;5031074;28;20037;-69
2022/09/27 10:14:40;;;;;;;;;;;;;;;12.00;64.46;94010.38;5030347;28;20063;-68
2022/09/27 10:17:10;;;;;;;;;;;;;;;13.47;62.04;94001.38;5031007;28;20002;-68
2022/09/27 10:19:36;;;;;;;;;;;;;;;12.50;63.19;93998.34;5029582;28;20006;-68
2022/09/27 10:22:09;;;;;;;;;;;;;;;12.42;64.09;94004.59;5031192;28;21976;-68
2022/09/27 10:24:54;;;;;;;;;;;;;;;12.42;64.09;94012.59;5030052;28;20514;-68
2022/09/27 10:27:20;;;;;;;;;;;;;;;13.83;62.17;94008.22;5030797;28;20052;-67
2022/09/27 10:29:45;;;;;;;;;;;;;;;14.12;60.02;93996.16;5030514;28;20006;-68
2022/09/27 10:32:23;;;;;;;;;;;;;;;14.46;58.41;94007.88;5031143;28;20486;-68
2022/09/27 10:34:55;;;;;;;;;;;;;;;13.50;61.02;94019.34;5030041;28;20316;-70
2022/09/27 10:37:21;;;;;;;;;;;;;;;13.90;60.88;94029.72;5031108;28;20458;-69
2022/09/27 10:39:48;;;;;;;;;;;;;;;13.49;63.13;94023.91;5029926;28;20010;-68
2022/09/27 10:42:20;;;;;;;;;;;;;;;13.02;63.38;94032.75;5030814;28;20014;-68
2022/09/27 10:44:46;;;;;;;;;;;;;;;11.57;69.65;94043.03;5027810;28;20148;-67
2022/09/27 10:47:18;;;;;;;;;;;;;;;12.15;71.76;94028.31;5010900;28;20097;-68
2022/09/27 10:49:43;;;;;;;;;;;;;;;11.20;74.34;94033.16;5011191;28;20010;-68
2022/09/27 10:52:17;;;;;;;;;;;;;;;12.19;73.83;94023.06;5029702;28;20014;-68
2022/09/27 10:54:51;;;;;;;;;;;;;;;12.15;73.12;94019.53;5028989;28;20550;-68
2022/09/27 10:57:18;;;;;;;;;;;;;;;12.69;71.76;94019.78;5010611;28;20010;-67
2022/09/27 10:59:46;;;;;;;;;;;;;;;12.90;70.89;94021.41;5010482;28;20045;-67
2022/09/27 11:02:43;;;;;;;;;;;;;;;13.19;69.72;94025.50;5010515;28;20080;-67
2022/09/27 11:05:11;;;;;;;;;;;;;;;12.59;71.09;94014.16;4990919;28;20019;-67
2022/09/27 11:07:45;;;;;;;;;;;;;;;13.41;69.52;94008.09;5029489;28;20540;-67
2022/09/27 11:10:22;;;;;;;;;;;;;;;13.12;67.79;94014.69;5030081;28;20489;-67
2022/09/27 11:13:07;;;;;;;;;;;;;;;13.35;67.24;94010.25;5030081;28;20096;-68
2022/09/27 11:15:53;;;;;;;;;;;;;;;14.34;63.21;94008.03;5026254;28;20068;-68
2022/09/27 11:18:34;;;;;;;;;;;;;;;13.72;63.28;94018.69;5024844;28;20013;-67
2022/09/27 11:21:02;;;;;;;;;;;;;;;13.54;62.71;94022.88;5027860;28;20010;-70
2022/09/27 11:23:36;;;;;;;;;;;;;;;13.08;62.21;94017.25;5012169;28;20025;-68
2022/09/27 11:26:01;;;;;;;;;;;;;;;13.87;62.91;94019.75;5030005;28;20006;-67
2022/09/27 11:28:30;;;;;;;;;;;;;;;13.85;62.29;94027.34;5028749;28;20016;-67
2022/09/27 11:31:02;;;;;;;;;;;;;;;14.11;61.18;94012.56;5029802;28;20010;-67
2022/09/27 11:33:31;;;;;;;;;;;;;;;14.45;61.29;94010.91;5029718;28;20040;-68
2022/09/27 11:36:02;;;;;;;;;;;;;;;14.11;60.13;94009.88;5028086;28;20465;-68
2022/09/27 11:38:49;;;;;;;;;;;;;;;14.62;59.69;93999.75;5029320;28;20105;-68
2022/09/27 11:41:24;;;;;;;;;;;;;;;15.02;59.88;94001.94;5029948;28;20010;-68
2022/09/27 11:44:10;;;;;;;;;;;;;;;16.05;58.77;94002.56;5029680;28;20033;-68
2022/09/27 11:46:36;;;;;;;;;;;;;;;15.97;56.07;94000.16;5029024;28;20068;-68
2022/09/27 11:49:20;;;;;;;;;;;;;;;16.36;54.91;93993.34;5029470;28;20013;-68
2022/09/27 11:51:56;;;;;;;;;;;;;;;16.57;53.02;93992.00;5031904;28;20014;-69
2022/09/27 11:54:36;;;;;;;;;;;;;;;16.05;53.70;93981.13;5023036;28;20120;-68
2022/09/27 11:57:17;;;;;;;;;;;;;;;16.74;54.65;93980.69;5013910;28;20435;-68
2022/09/27 11:59:57;;;;;;;;;;;;;;;15.90;53.02;93990.13;5013761;28;20080;-68
2022/09/27 12:02:28;;;;;;;;;;;;;;;16.11;54.84;93979.66;5013751;28;20014;-67
2022/09/27 12:05:12;;;;;;;;;;;;;;;16.36;54.51;93963.03;5027085;28;20014;-67
2022/09/27 12:07:53;;;;;;;;;;;;;;;15.65;54.55;93964.94;5031042;28;20009;-68
2022/09/27 12:10:20;;;;;;;;;;;;;;;16.20;52.39;93970.56;5033070;28;20467;-67
2022/09/27 12:12:50;;;;;;;;;;;;;;;15.89;53.06;93980.56;5033270;28;20002;-67
2022/09/27 12:15:23;;;;;;;;;;;;;;;16.42;52.46;93977.66;5032557;28;20018;-68
2022/09/27 12:17:51;;;;;;;;;;;;;;;15.27;54.66;93986.25;5033182;28;20025;-67
2022/09/27 12:20:24;;;;;;;;;;;;;;;16.00;53.59;93981.44;5032912;28;20010;-67
2022/09/27 12:22:59;;;;;;;;;;;;;;;15.92;54.21;93968.31;5013039;28;20018;-67
2022/09/27 12:25:28;;;;;;;;;;;;;;;14.49;55.86;93983.13;5033408;28;20005;-68
2022/09/27 12:28:09;;;;;;;;;;;;;;;14.61;54.83;93976.03;5033300;28;20002;-68
2022/09/27 12:30:38;;;;;;;;;;;;;;;13.67;56.72;93970.88;5033214;28;20010;-68
2022/09/27 12:33:17;;;;;;;;;;;;;;;13.74;56.25;93962.22;5033243;28;20478;-67
2022/09/27 12:35:50;;;;;;;;;;;;;;;14.48;54.95;93956.69;5033616;28;20017;-68
2022/09/27 12:38:25;;;;;;;;;;;;;;;15.42;52.58;93956.97;5032862;28;20034;-67
2022/09/27 12:40:52;;;;;;;;;;;;;;;15.38;52.27;93959.59;5032942;28;20013;-67
2022/09/27 12:43:22;;;;;;;;;;;;;;;14.68;52.97;93954.72;5033246;28;20112;-68
2022/09/27 12:46:03;;;;;;;;;;;;;;;16.23;49.93;93933.03;5033227;28;20215;-68
2022/09/27 12:48:35;;;;;;;;;;;;;;;15.92;51.55;93946.84;5014913;28;20167;-69
2022/09/27 12:51:11;;;;;;;;;;;;;;;16.41;49.88;93953.88;5031631;28;20018;-68
2022/09/27 12:53:55;;;;;;;;;;;;;;;16.41;48.52;93951.97;5022104;28;20390;-68
2022/09/27 12:56:29;;;;;;;;;;;;;;;17.55;47.86;93950.13;5012854;28;20521;-68
2022/09/27 12:58:57;;;;;;;;;;;;;;;17.29;47.64;93945.75;5012649;28;20529;-68
2022/09/27 13:01:25;;;;;;;;;;;;;;;16.98;47.97;93930.97;5012638;28;20010;-69
2022/09/27 13:03:57;;;;;;;;;;;;;;;16.94;45.86;93945.53;5018437;28;20018;-68
2022/09/27 13:06:34;;;;;;;;;;;;;;;16.37;46.04;93943.13;5031329;28;20014;-68